Ute Mountain Indian Reservat, Colorado
Current Conditions -  °F | °C
As of 1:53 AM on Saturday 25 Oct 2014 (Local Time) from KCEZ Reporting Station
Clear Clear  
Wind Chill: 35°   Ceiling: Unl
Heat Index: 35°   Visibility: 10mi
Dew Point: 28°   Wind: 3mph
Humidity: 76%   Direction: 70°ENE
Pressure: 30.34"   Gusts: NA
Location:  37.1336°N, 108.707°W
Report Text: KCEZ 250753Z AUTO 07003KT 10SM CLR 02/M02 A3034 RMK AO2 SLP229 T00171022
Loading
Personal Weather Stations






























Interactive Weather Map
Tropical Storm Tracking
New forecast layout! Learn more

10-Day Weather Forecast

Advertisements
Track Severe Weather on mobile